Data for 12/20/2010

Time Sea-Level Adjusted Pressure Absolute Pressure Temperature Relative Humidity Dew Point   
(mb) (inHg) (mb) (inHg) (C) (F) (%) (C) (F)
00:05 996 29.41 825 24.36 -10.4 13.3 75 -14.1 6.7
00:10 996 29.41 825 24.36 -10.5 13.1 75 -14.1 6.7
00:15 996 29.41 826 24.39 -10.6 12.8 76 -14.2 6.5
00:20 997 29.44 826 24.39 -10.8 12.6 76 -14.3 6.3
00:25 997 29.44 826 24.39 -10.8 12.6 76 -14.2 6.4
00:30 997 29.44 826 24.39 -10.8 12.6 76 -14.2 6.4
00:35 997 29.44 826 24.39 -10.8 12.6 76 -14.1 6.5
00:40 997 29.44 826 24.39 -10.7 12.7 77 -14.1 6.6
00:45 997 29.44 826 24.39 -10.7 12.7 76 -14.2 6.5
00:50 997 29.44 826 24.39 -10.6 12.9 76 -14 6.8
00:55 997 29.44 827 24.42 -10.6 12.9 76 -14 6.8
01:00 997 29.44 827 24.42 -10.6 13 77 -13.9 6.9
01:05 997 29.44 827 24.42 -10.6 12.9 77 -13.9 7.1
01:10 997 29.44 826 24.39 -10.6 12.9 77 -13.9 7
01:15 997 29.44 826 24.39 -10.7 12.8 78 -13.8 7.2
01:20 997 29.44 826 24.39 -10.8 12.7 87 -12.5 9.6
01:25 997 29.44 826 24.39 -10.9 12.5 90 -12.2 10
01:30 997 29.44 826 24.39 -11 12.2 90 -12.3 9.9
01:35 997 29.44 826 24.39 -11.1 12.1 91 -12.3 9.9
01:40 997 29.44 827 24.42 -11.1 11.9 91 -12.3 9.8
01:45 997 29.44 826 24.39 -11.2 11.8 93 -12.2 10.1
01:50 997 29.44 827 24.42 -11.2 11.9 93 -12.1 10.3
01:55 997 29.44 827 24.42 -11.1 12 93 -12.1 10.2
02:00 997 29.44 827 24.42 -11.3 11.7 93 -12.1 10.2
02:05 997 29.44 827 24.42 -11.3 11.7 93 -12.1 10.2
02:10 997 29.44 826 24.39 -11.3 11.7 93 -12.2 10.1
02:15 997 29.44 826 24.39 -11.4 11.5 93 -12.3 9.9
02:20 997 29.44 826 24.39 -11.4 11.5 93 -12.3 9.9
02:25 997 29.44 826 24.39 -11.4 11.5 93 -12.4 9.7
02:30 997 29.44 827 24.42 -11.4 11.5 92 -12.4 9.6
02:35 997 29.44 827 24.42 -11.4 11.5 92 -12.5 9.5
02:40 998 29.47 827 24.42 -11.3 11.6 92 -12.4 9.7
02:45 998 29.47 827 24.42 -11.3 11.6 91 -12.5 9.5
02:50 998 29.47 827 24.42 -11.4 11.4 91 -12.6 9.3
02:55 998 29.47 827 24.42 -11.4 11.4 92 -12.5 9.5
03:00 999 29.5 828 24.45 -11.3 11.7 92 -12.4 9.7
03:05 999 29.5 828 24.45 -11.3 11.8 91 -12.4 9.7
03:10 999 29.5 828 24.45 -11.1 12 91 -12.3 9.8
03:15 999 29.5 828 24.45 -11.1 12.1 91 -12.3 9.9
03:20 999 29.5 828 24.45 -11 12.1 91 -12.2 10
03:25 999 29.5 828 24.45 -11 12.2 91 -12.2 10
03:30 998 29.47 828 24.45 -11.1 12.1 91 -12.2 10
03:35 998 29.47 828 24.45 -11.1 12 91 -12.3 9.9
03:40 998 29.47 828 24.45 -11.1 12 91 -12.3 9.9
03:45 999 29.5 828 24.45 -11 12.1 92 -12.1 10.2
03:50 999 29.5 828 24.45 -10.8 12.6 91 -12 10.3
03:55 999 29.5 828 24.45 -10.7 12.7 90 -12.1 10.2
04:00 999 29.5 829 24.48 -10.8 12.5 89 -12.3 9.9
04:05 999 29.5 829 24.48 -11.1 12.1 90 -12.4 9.7
04:10 1000 29.53 829 24.48 -11 12.1 90 -12.4 9.7
04:15 1000 29.53 829 24.48 -11.1 12 89 -12.5 9.4
04:20 1000 29.53 829 24.48 -11.3 11.6 90 -12.7 9.1
04:25 1000 29.53 829 24.48 -11.5 11.4 90 -12.8 9
04:30 1000 29.53 829 24.48 -11.6 11.1 91 -12.9 8.8
04:35 1000 29.53 829 24.48 -11.8 10.8 90 -13.1 8.4
04:40 1000 29.53 829 24.48 -11.9 10.6 91 -13.1 8.4
04:45 1000 29.53 829 24.48 -12.3 9.9 92 -13.3 8
04:50 1000 29.53 829 24.48 -12.3 9.9 92 -13.3 8.1
04:55 1000 29.53 829 24.48 -12.2 10 92 -13.3 8.1
05:00 1000 29.53 829 24.48 -12.3 9.9 92 -13.4 7.9
05:05 1000 29.53 829 24.48 -12.1 10.2 92 -13.2 8.2
05:10 1000 29.53 830 24.51 -12.1 10.1 90 -13.4 7.8
05:15 1000 29.53 830 24.51 -12.2 10 90 -13.5 7.8
05:20 1001 29.56 830 24.51 -12.3 9.9 91 -13.5 7.7
05:25 1001 29.56 830 24.51 -12.2 10 91 -13.4 7.8
05:30 1001 29.56 830 24.51 -12.2 10.1 91 -13.4 7.9
05:35 1001 29.56 830 24.51 -12.3 10 91 -13.4 7.8
05:40 1001 29.56 830 24.51 -12.2 10 92 -13.3 8
05:45 1001 29.56 830 24.51 -12.2 10.1 91 -13.3 8.1
05:50 1001 29.56 830 24.51 -12.1 10.3 91 -13.3 8.1
05:55 1001 29.56 830 24.51 -12 10.4 91 -13.2 8.3
06:00 1001 29.56 831 24.54 -11.9 10.5 91 -13.1 8.5
06:05 1001 29.56 831 24.54 -11.8 10.8 91 -13 8.6
06:10 1002 29.59 831 24.54 -11.8 10.7 90 -13.2 8.3
06:15 1002 29.59 831 24.54 -12 10.4 91 -13.2 8.2
06:20 1002 29.59 831 24.54 -12 10.5 90 -13.3 8.1
06:25 1002 29.59 831 24.54 -12 10.4 90 -13.2 8.2
06:30 1002 29.59 831 24.54 -11.9 10.6 91 -13.1 8.4
06:35 1002 29.59 831 24.54 -11.8 10.7 91 -13 8.5
06:40 1002 29.59 831 24.54 -11.8 10.8 90 -13.1 8.5
06:45 1002 29.59 831 24.54 -11.9 10.6 90 -13.2 8.2
06:50 1002 29.59 831 24.54 -12.1 10.2 90 -13.4 7.8
06:55 1002 29.59 831 24.54 -12.3 9.9 90 -13.6 7.5
07:00 1002 29.59 831 24.54 -12.4 9.8 91 -13.6 7.5
07:05 1002 29.59 831 24.54 -12.3 9.9 91 -13.5 7.7
07:10 1002 29.59 832 24.57 -12.3 9.9 91 -13.5 7.8
07:15 1002 29.59 832 24.57 -12.2 10.1 92 -13.2 8.2
07:20 1003 29.62 832 24.57 -12 10.3 91 -13.3 8.1
07:25 1003 29.62 832 24.57 -12.1 10.3 91 -13.3 8.1
07:30 1003 29.62 832 24.57 -12.1 10.3 91 -13.3 8
07:35 1003 29.62 832 24.57 -12.1 10.1 91 -13.3 8
07:40 1003 29.62 832 24.57 -12.1 10.3 91 -13.3 8.1
07:45 1003 29.62 832 24.57 -12 10.3 91 -13.2 8.2
07:50 1003 29.62 832 24.57 -12 10.5 91 -13.2 8.3
07:55 1003 29.62 832 24.57 -11.9 10.6 90 -13.2 8.3
08:00 1003 29.62 832 24.57 -11.8 10.7 91 -13.1 8.5
08:05 1003 29.62 832 24.57 -11.6 11.1 89 -13.1 8.4
08:10 1003 29.62 832 24.57 -11.7 11 90 -13 8.6
08:15 1003 29.62 832 24.57 -11.3 11.6 89 -12.8 8.9
08:20 1003 29.62 833 24.6 -11.2 11.8 88 -12.8 9
08:25 1004 29.65 833 24.6 -11.2 11.8 88 -12.8 8.9
08:30 1004 29.65 833 24.6 -11.3 11.7 88 -12.9 8.8
08:35 1004 29.65 833 24.6 -11.1 12.1 87 -12.8 9
08:40 1004 29.65 833 24.6 -10.7 12.8 86 -12.6 9.4
08:45 1004 29.65 833 24.6 -10.2 13.7 84 -12.4 9.6
08:50 1004 29.65 833 24.6 -10 13.9 84 -12.2 10
08:55 1004 29.65 833 24.6 -9.5 15 81 -12.1 10.3
09:00 1004 29.65 833 24.6 -9.4 15.1 82 -11.9 10.5
09:05 1004 29.65 834 24.63 -9.2 15.5 80 -12 10.4
09:10 1004 29.65 834 24.63 -9.3 15.3 81 -12 10.4
09:15 1005 29.68 834 24.63 -9.6 14.7 83 -12 10.4
09:20 1005 29.68 834 24.63 -9.8 14.4 83 -12.2 10.1
09:25 1005 29.68 834 24.63 -9.9 14.1 83 -12.3 9.8
09:30 1005 29.68 834 24.63 -10.2 13.6 84 -12.4 9.7
09:35 1005 29.68 834 24.63 -10.4 13.3 85 -12.5 9.6
09:40 1005 29.68 835 24.66 -10.4 13.3 84 -12.6 9.4
09:45 1005 29.68 835 24.66 -10.5 13.1 84 -12.7 9.2
09:50 1005 29.68 835 24.66 -10.7 12.8 85 -12.7 9.1
09:55 1006 29.71 835 24.66 -10.3 13.4 82 -12.8 8.9
10:00 1006 29.71 835 24.66 -10.1 13.8 82 -12.6 9.3
10:05 1006 29.71 835 24.66 -10 14 81 -12.6 9.2
10:10 1006 29.71 835 24.66 -9.4 15.1 80 -12.2 10.1
10:15 1006 29.71 835 24.66 -9.6 14.7 78 -12.8 8.9
10:20 1006 29.71 835 24.66 -10.1 13.8 79 -13 8.5
10:25 1006 29.71 835 24.66 -10.1 13.9 80 -13 8.7
10:30 1006 29.71 835 24.66 -9.9 14.1 80 -12.7 9.1
10:35 1006 29.71 836 24.69 -9.9 14.2 80 -12.7 9.1
10:40 1007 29.74 836 24.69 -10 14 80 -12.8 9
10:45 1007 29.74 836 24.69 -9.8 14.5 79 -12.8 9
10:50 1007 29.74 836 24.69 -9.8 14.4 76 -13.3 8.1
10:55 1007 29.74 836 24.69 -9.9 14.1 78 -13 8.6
11:00 1007 29.74 836 24.69 -10.2 13.6 82 -12.7 9.1
11:05 1007 29.74 836 24.69 -10 14.1 80 -12.8 8.9
11:10 1007 29.74 836 24.69 -9.1 15.6 74 -12.9 8.7
11:15 1007 29.74 836 24.69 -8.2 17.2 71 -12.6 9.3
11:20 1007 29.74 836 24.69 -7.8 17.9 69 -12.5 9.5
11:25 1007 29.74 836 24.69 -7.4 18.7 68 -12.3 9.9
11:30 1007 29.74 836 24.69 -7.7 18.1 70 -12.2 10
11:35 1007 29.74 836 24.69 -7.7 18.2 69 -12.5 9.5
11:40 1007 29.74 836 24.69 -7.4 18.6 67 -12.6 9.4
11:45 1007 29.74 836 24.69 -7.5 18.5 68 -12.4 9.7
11:50 1007 29.74 836 24.69 -7.6 18.3 70 -12.2 10.1
11:55 1007 29.74 836 24.69 -6.8 19.7 66 -12.2 10
12:00 1007 29.74 836 24.69 -6.5 20.4 66 -11.7 10.9
12:05 1007 29.74 836 24.69 -6.5 20.3 62 -12.6 9.4
12:10 1007 29.74 836 24.69 -6 21.2 62 -12.2 10
12:15 1007 29.74 836 24.69 -6.1 21 64 -11.8 10.7
12:20 1007 29.74 836 24.69 -6.1 21 62 -12.2 10
12:25 1007 29.74 836 24.69 -5.7 21.7 62 -12 10.4
12:30 1007 29.74 836 24.69 -4.8 23.3 58 -11.9 10.6
12:35 1007 29.74 836 24.69 -4.3 24.3 58 -11.3 11.6
12:40 1007 29.74 836 24.69 -3.7 25.3 56 -11.3 11.7
12:45 1007 29.74 836 24.69 -2.9 26.8 54 -10.9 12.4
12:50 1007 29.74 836 24.69 -2.7 27.2 52 -11.2 11.8
12:55 1006 29.71 836 24.69 -3 26.6 56 -10.7 12.8
13:00 1006 29.71 836 24.69 -3.1 26.4 54 -11.1 12
13:05 1006 29.71 836 24.69 -3.2 26.2 55 -10.9 12.4
13:10 1006 29.71 836 24.69 -2.9 26.8 54 -10.9 12.3
13:15 1006 29.71 836 24.69 -2.4 27.6 52 -10.9 12.4
13:20 1006 29.71 836 24.69 -1.6 29 51 -10.4 13.3
13:25 1006 29.71 836 24.69 -0.8 30.6 49 -10.2 13.6
13:30 1006 29.71 836 24.69 -0.7 30.8 50 -9.8 14.3
13:35 1006 29.71 836 24.69 -1.1 30.1 50 -10.2 13.6
13:40 1007 29.74 836 24.69 -0.8 30.5 49 -10.2 13.6
13:45 1007 29.74 836 24.69 -0.5 31.1 48 -10.2 13.6
13:50 1007 29.74 836 24.69 -0.9 30.5 50 -9.9 14.2
13:55 1007 29.74 836 24.69 -1.3 29.7 51 -10.3 13.5
14:00 1007 29.74 836 24.69 -1.8 28.8 53 -10.2 13.7
14:05 1007 29.74 836 24.69 -1.9 28.6 52 -10.6 12.9
14:10 1007 29.74 836 24.69 -2.2 28 53 -10.5 13
14:15 1007 29.74 836 24.69 -2 28.4 52 -10.5 13
14:20 1007 29.74 836 24.69 -1.6 29.1 51 -10.5 13.1
14:25 1007 29.74 836 24.69 -1.5 29.3 50 -10.6 13
14:30 1007 29.74 836 24.69 -1.5 29.3 49 -10.8 12.6
14:35 1007 29.74 836 24.69 -1.4 29.6 50 -10.4 13.3
14:40 1007 29.74 836 24.69 -1.6 29.1 52 -10.4 13.4
14:45 1007 29.74 836 24.69 -2 28.4 52 -10.6 13
14:50 1007 29.74 836 24.69 -2 28.4 52 -10.7 12.8
14:55 1007 29.74 836 24.69 -1.6 29.1 51 -10.5 13
15:00 1007 29.74 837 24.72 -1.3 29.7 49 -10.6 12.9
15:05 1007 29.74 837 24.72 -0.5 31.1 47 -10.6 13
15:10 1008 29.77 837 24.72 -0.3 31.4 47 -10.5 13.2
15:15 1008 29.77 837 24.72 -0.9 30.4 47 -10.9 12.4
15:20 1008 29.77 837 24.72 -1.2 29.9 47 -11.2 11.8
15:25 1008 29.77 837 24.72 -1.1 29.9 48 -10.7 12.7
15:30 1008 29.77 837 24.72 -1.3 29.7 49 -10.6 12.9
15:35 1008 29.77 837 24.72 -1 30.3 48 -10.7 12.7
15:40 1008 29.77 837 24.72 -0.7 30.7 47 -10.8 12.6
15:45 1008 29.77 837 24.72 -0.5 31.1 44 -11.3 11.7
15:50 1008 29.77 837 24.72 -0.2 31.6 43 -11.3 11.6
15:55 1008 29.77 837 24.72 -0.5 31.2 45 -11.1 12
16:00 1008 29.77 837 24.72 -0.2 31.6 44 -11.1 12
16:05 1008 29.77 837 24.72 -0.3 31.4 45 -10.9 12.4
16:10 1008 29.77 837 24.72 -0.2 31.7 44 -11 12.1
16:15 1008 29.77 837 24.72 -0.7 30.7 47 -10.6 13
16:20 1008 29.77 837 24.72 -1.1 30.1 49 -10.6 13
16:25 1008 29.77 837 24.72 -1.2 29.8 51 -10.2 13.7
16:30 1008 29.77 837 24.72 -1.9 28.7 47 -11.7 11
16:35 1008 29.77 838 24.75 -2.6 27.4 49 -12 10.5
16:40 1008 29.77 838 24.75 -2.9 26.7 50 -12 10.4
16:45 1008 29.77 838 24.75 -3.3 26.1 52 -11.8 10.7
16:50 1008 29.77 838 24.75 -3.5 25.7 54 -11.6 11.1
16:55 1008 29.77 838 24.75 -3.6 25.5 52 -12.1 10.2
17:00 1008 29.77 838 24.75 -3.4 25.9 51 -12.1 10.2
17:05 1008 29.77 838 24.75 -3.6 25.6 54 -11.6 11.1
17:10 1008 29.77 838 24.75 -4 24.7 56 -11.6 11.2
17:15 1009 29.8 838 24.75 -4.1 24.6 52 -12.6 9.4
17:20 1009 29.8 838 24.75 -3.6 25.6 53 -11.7 10.9
17:25 1009 29.8 838 24.75 -4.1 24.5 57 -11.6 11.2
17:30 1009 29.8 838 24.75 -4.4 24.1 58 -11.4 11.4
17:35 1009 29.8 838 24.75 -4.5 23.9 57 -11.8 10.7
17:40 1009 29.8 838 24.75 -4.9 23.2 56 -12.3 9.8
17:45 1009 29.8 838 24.75 -4.9 23.2 54 -12.9 8.9
17:50 1009 29.8 838 24.75 -4.7 23.6 54 -12.6 9.3
17:55 1009 29.8 838 24.75 -4.9 23.2 55 -12.7 9.1
18:00 1009 29.8 838 24.75 -4.8 23.3 55 -12.4 9.6
18:05 1009 29.8 838 24.75 -5.1 22.8 58 -12.2 10.1
18:10 1009 29.8 838 24.75 -5.2 22.6 56 -12.7 9.1
18:15 1009 29.8 838 24.75 -5.3 22.4 56 -12.7 9.2
18:20 1009 29.8 838 24.75 -4.9 23.2 53 -13 8.5
18:25 1009 29.8 838 24.75 -4.5 23.9 53 -12.8 9
18:30 1009 29.8 838 24.75 -4.8 23.3 60 -11.5 11.3
18:35 1009 29.8 838 24.75 -6.9 19.6 67 -12.1 10.3
18:40 1009 29.8 839 24.78 -7.9 17.7 72 -12.2 10.1
18:45 1009 29.8 839 24.78 -8.5 16.7 73 -12.6 9.3
18:50 1009 29.8 839 24.78 -8.9 16 74 -12.7 9.2
18:55 1009 29.8 839 24.78 -9.4 15 77 -12.8 9
19:00 1009 29.8 839 24.78 -9.5 14.9 77 -12.8 8.9
19:05 1009 29.8 839 24.78 -9.7 14.5 78 -12.8 8.9
19:10 1009 29.8 839 24.78 -9.4 15.1 75 -13.1 8.4
19:15 1009 29.8 839 24.78 -8.4 16.8 70 -13 8.5
19:20 1009 29.8 839 24.78 -7.3 18.9 64 -12.9 8.7
19:25 1009 29.8 839 24.78 -6.7 19.9 62 -12.9 8.8
19:30 1009 29.8 839 24.78 -5.6 22 58 -12.5 9.5
19:35 1009 29.8 839 24.78 -5.5 22.1 59 -12.4 9.7
19:40 1009 29.8 839 24.78 -5.4 22.4 58 -12.5 9.5
19:45 1009 29.8 839 24.78 -5.3 22.4 57 -12.6 9.4
19:50 1009 29.8 839 24.78 -5 23 57 -12.3 9.8
19:55 1009 29.8 839 24.78 -4.9 23.2 57 -12.2 10
20:00 1009 29.8 839 24.78 -5.1 22.8 58 -12.2 10
20:05 1009 29.8 839 24.78 -5.6 22 59 -12.4 9.8
20:10 1009 29.8 839 24.78 -5.4 22.3 57 -12.7 9.2
20:15 1009 29.8 839 24.78 -5.1 22.9 57 -12.4 9.8
20:20 1009 29.8 839 24.78 -5.3 22.5 58 -12.3 9.8
20:25 1009 29.8 839 24.78 -5.4 22.2 58 -12.4 9.6
20:30 1009 29.8 839 24.78 -5.2 22.7 57 -12.5 9.6
20:35 1010 29.83 839 24.78 -5.2 22.6 58 -12.3 9.8
20:40 1010 29.83 839 24.78 -5.3 22.4 58 -12.4 9.7
20:45 1010 29.83 839 24.78 -5.4 22.2 57 -12.6 9.3
20:50 1010 29.83 839 24.78 -5.3 22.5 57 -12.5 9.5
20:55 1010 29.83 839 24.78 -5.2 22.6 57 -12.5 9.5
21:00 1010 29.83 839 24.78 -5.1 22.9 56 -12.6 9.3
21:05 1010 29.83 839 24.78 -5 23 56 -12.5 9.5
21:10 1010 29.83 839 24.78 -5.2 22.7 56 -12.6 9.3
21:15 1010 29.83 839 24.78 -5.2 22.7 55 -12.8 8.9
21:20 1010 29.83 839 24.78 -5.3 22.5 57 -12.6 9.4
21:25 1010 29.83 839 24.78 -5.4 22.2 57 -12.8 9
21:30 1010 29.83 839 24.78 -5.6 22 57 -12.8 8.9
21:35 1010 29.83 839 24.78 -5.7 21.7 57 -12.8 8.9
21:40 1010 29.83 840 24.81 -5.9 21.4 59 -12.8 9
21:45 1010 29.83 840 24.81 -6.1 21.1 59 -12.9 8.8
21:50 1010 29.83 840 24.81 -5.9 21.4 58 -12.9 8.7
21:55 1010 29.83 840 24.81 -5.9 21.4 58 -12.9 8.7
22:00 1011 29.85 840 24.81 -5.9 21.4 58 -13 8.7
22:05 1011 29.85 840 24.81 -5.7 21.8 56 -13 8.5
22:10 1011 29.85 840 24.81 -5.7 21.8 56 -13 8.5
22:15 1011 29.85 840 24.81 -5.7 21.8 57 -13 8.7
22:20 1011 29.85 840 24.81 -5.7 21.7 57 -13 8.7
22:25 1011 29.85 840 24.81 -5.6 21.9 56 -13 8.6
22:30 1011 29.85 840 24.81 -5.6 22 55 -13.2 8.3
22:35 1011 29.85 840 24.81 -5.8 21.6 56 -13.2 8.3
22:40 1011 29.85 840 24.81 -6.1 21.1 57 -13.3 8.1
22:45 1011 29.85 840 24.81 -6.2 20.9 58 -13.1 8.4
22:50 1011 29.85 840 24.81 -6.2 20.8 57 -13.3 8
22:55 1011 29.85 840 24.81 -6.1 21 56 -13.5 7.6
23:00 1011 29.85 840 24.81 -6 21.2 56 -13.4 7.9
23:05 1011 29.85 840 24.81 -6.2 20.8 56 -13.7 7.4
23:10 1011 29.85 841 24.83 -6.1 21 56 -13.6 7.5
23:15 1011 29.85 841 24.83 -6.6 20.1 57 -13.8 7.1
23:20 1011 29.85 841 24.83 -6.5 20.3 56 -14 6.9
23:25 1011 29.85 841 24.83 -6.4 20.5 56 -13.8 7.1
23:30 1011 29.85 841 24.83 -6.7 19.9 59 -13.5 7.7
23:35 1012 29.88 841 24.83 -6.6 20 58 -13.5 7.7
23:40 1012 29.88 841 24.83 -6.7 19.9 58 -13.6 7.5
23:45 1012 29.88 841 24.83 -6.8 19.8 59 -13.6 7.5
23:50 1012 29.88 841 24.83 -7 19.3 60 -13.5 7.7
23:55 1012 29.88 841 24.83 -6.9 19.5 61 -13.3 8
24:00 1012 29.88 841 24.83 -6.7 20 60 -13.3 8.1